createdAt,value
2016-02-22T00:00:48.989Z,60.27
2016-02-22T00:01:48.976Z,60.84
2016-02-22T00:02:48.963Z,60.55
2016-02-22T00:03:48.950Z,60.07
2016-02-22T00:04:48.781Z,60.36
2016-02-22T00:05:48.912Z,60.24
2016-02-22T00:06:48.898Z,60.17
2016-02-22T00:07:48.870Z,60.27
2016-02-22T00:08:48.856Z,60.36
2016-02-22T00:09:48.845Z,60.42
2016-02-22T00:10:48.831Z,60.72
2016-02-22T00:11:48.818Z,60.65
2016-02-22T00:12:48.805Z,60.81
2016-02-22T00:13:48.777Z,60.24
2016-02-22T00:14:48.764Z,60.52
2016-02-22T00:15:48.766Z,60.24
2016-02-22T00:16:48.727Z,61.39
2016-02-22T00:17:48.730Z,60.62
2016-02-22T00:18:48.702Z,60.91
2016-02-22T00:19:48.672Z,60.42
2016-02-22T00:20:48.675Z,60.81
2016-02-22T00:21:48.646Z,60.72
2016-02-22T00:22:48.649Z,60.81
2016-02-22T00:23:48.621Z,60.42
2016-02-22T00:24:48.593Z,60.72
2016-02-22T00:25:48.579Z,60.62
2016-02-22T00:26:48.582Z,60.24
2016-02-22T00:27:48.554Z,60.33
2016-02-22T00:28:48.540Z,60.62
2016-02-22T00:29:48.543Z,60.24
2016-02-22T00:30:48.515Z,60.42
2016-02-22T00:31:48.487Z,59.94
2016-02-22T00:32:48.473Z,60.04
2016-02-22T00:33:48.460Z,59.75
2016-02-22T00:34:48.447Z,60.14
2016-02-22T00:35:48.419Z,60.24
2016-02-22T00:36:48.406Z,59.94
2016-02-22T00:37:48.424Z,60.33
2016-02-22T00:38:48.380Z,60.04
2016-02-22T00:39:48.351Z,60.33
2016-02-22T00:40:48.354Z,60.04
2016-02-22T00:41:48.341Z,60.14
2016-02-22T00:42:48.313Z,59.75
2016-02-22T00:43:48.300Z,60.14
2016-02-22T00:44:48.272Z,60.04
2016-02-22T00:45:48.258Z,60.52
2016-02-22T00:46:48.260Z,60.04
2016-02-22T00:47:48.233Z,59.66
2016-02-22T00:48:48.219Z,59.85
2016-02-22T00:49:48.191Z,59.75
2016-02-22T00:50:48.177Z,60.24
2016-02-22T00:51:48.166Z,60.04
2016-02-22T00:52:48.152Z,60.14
2016-02-22T00:53:48.138Z,59.75
2016-02-22T00:54:48.110Z,60.24
2016-02-22T00:55:48.098Z,59.85
2016-02-22T00:56:48.085Z,59.94
2016-02-22T00:57:48.056Z,60.04
2016-02-22T00:58:48.059Z,59.56
2016-02-22T00:59:48.029Z,60.14
2016-02-22T01:00:48.018Z,59.47
2016-02-22T01:01:48.004Z,59.56
2016-02-22T01:02:47.975Z,60.14
2016-02-22T01:03:47.963Z,59.75
2016-02-22T01:04:47.982Z,59.47
2016-02-22T01:05:47.937Z,59.94
2016-02-22T01:06:47.923Z,59.47
2016-02-22T01:07:47.912Z,59.66
2016-02-22T01:08:47.898Z,59.56
2016-02-22T01:09:47.870Z,59.56
2016-02-22T01:10:47.856Z,59.94
2016-02-22T01:11:47.828Z,59.75
2016-02-22T01:12:47.830Z,59.75
2016-02-22T01:13:47.817Z,59.56
2016-02-22T01:14:47.789Z,59.56
2016-02-22T01:15:47.777Z,59.56
2016-02-22T01:16:47.779Z,59.85
2016-02-22T01:17:47.735Z,59.85
2016-02-22T01:18:47.722Z,59.75
2016-02-22T01:19:47.708Z,59.85
2016-02-22T01:20:47.696Z,59.85
2016-02-22T01:21:47.699Z,59.85
2016-02-22T01:22:47.654Z,59.75
2016-02-22T01:23:47.657Z,59.75
2016-02-22T01:24:47.629Z,59.85
2016-02-22T01:25:47.615Z,59.75
2016-02-22T01:26:47.587Z,59.75
2016-02-22T01:27:47.590Z,59.56
2016-02-22T01:28:47.562Z,59.56
2016-02-22T01:29:47.548Z,59.75
2016-02-22T01:30:47.551Z,59.94
2016-02-22T01:31:47.523Z,59.94
2016-02-22T01:32:47.509Z,59.47
2016-02-22T01:33:47.512Z,59.94
2016-02-22T01:34:47.468Z,59.56
2016-02-22T01:35:47.455Z,59.94
2016-02-22T01:36:47.442Z,59.66
2016-02-22T01:37:47.429Z,59.66
2016-02-22T01:38:47.417Z,59.56
2016-02-22T01:39:47.403Z,59.56
2016-02-22T01:40:47.375Z,59.66
2016-02-22T01:41:47.362Z,59.66
2016-02-22T01:42:47.333Z,59.94
2016-02-22T01:43:47.320Z,60.14
2016-02-22T01:44:47.308Z,59.94
2016-02-22T01:45:47.294Z,59.85
2016-02-22T01:46:47.281Z,60.14
2016-02-22T01:47:47.253Z,59.56
2016-02-22T01:48:47.241Z,60.33
2016-02-22T01:49:47.243Z,59.75
2016-02-22T01:50:47.214Z,59.56
2016-02-22T01:51:47.202Z,59.94
2016-02-22T01:52:47.172Z,59.85
2016-02-22T01:53:47.175Z,59.66
2016-02-22T01:54:47.147Z,60.04
2016-02-22T01:55:47.134Z,60.04
2016-02-22T01:56:47.105Z,60.14
2016-02-22T01:57:47.093Z,59.85
2016-02-22T01:58:47.095Z,59.85
2016-02-22T01:59:47.066Z,59.66
2016-02-22T02:00:47.054Z,59.75
2016-02-22T02:01:47.025Z,59.94
2016-02-22T02:02:47.028Z,60.04
2016-02-22T02:03:46.999Z,60.14
2016-02-22T02:04:47.002Z,59.66
2016-02-22T02:05:46.973Z,59.75
2016-02-22T02:06:46.945Z,60.04
2016-02-22T02:07:46.932Z,60.33
2016-02-22T02:08:46.919Z,60.04
2016-02-22T02:09:46.922Z,59.75
2016-02-22T02:10:46.878Z,59.37
2016-02-22T02:11:46.880Z,59.75
2016-02-22T02:12:46.851Z,59.56
2016-02-22T02:13:46.854Z,59.75
2016-02-22T02:14:46.825Z,59.56
2016-02-22T02:15:46.813Z,59.85
2016-02-22T02:16:46.799Z,59.85
2016-02-22T02:17:46.771Z,59.75
2016-02-22T02:18:46.774Z,60.14
2016-02-22T02:19:46.760Z,59.56
2016-02-22T02:20:46.732Z,59.75
2016-02-22T02:21:46.719Z,59.75
2016-02-22T02:22:46.691Z,59.85
2016-02-22T02:23:46.693Z,59.66
2016-02-22T02:24:46.666Z,59.56
2016-02-22T02:25:46.652Z,59.94
2016-02-22T02:26:46.624Z,59.94
2016-02-22T02:27:46.611Z,59.75
2016-02-22T02:28:46.598Z,60.33
2016-02-22T02:29:46.585Z,60.33
2016-02-22T02:30:46.572Z,60.24
2016-02-22T02:31:46.559Z,60.42
2016-02-22T02:32:46.530Z,60.04
2016-02-22T02:33:46.533Z,60.72
2016-02-22T02:34:46.504Z,60.14
2016-02-22T02:35:46.476Z,60.24
2016-02-22T02:36:46.479Z,59.85
2016-02-22T02:37:46.450Z,59.94
2016-02-22T02:38:46.453Z,59.85
2016-02-22T02:39:46.424Z,59.75
2016-02-22T02:40:46.411Z,60.33
2016-02-22T02:41:46.383Z,60.24
2016-02-22T02:42:46.386Z,60.24
2016-02-22T02:43:46.356Z,59.94
2016-02-22T02:44:46.344Z,59.75
2016-02-22T02:45:46.330Z,60.04
2016-02-22T02:46:46.317Z,60.14
2016-02-22T02:47:46.289Z,60.14
2016-02-22T02:48:46.276Z,60.33
2016-02-22T02:49:46.263Z,60.04
2016-02-22T02:50:46.250Z,60.24
2016-02-22T02:51:46.221Z,60.24
2016-02-22T02:52:46.208Z,60.81
2016-02-22T02:53:46.196Z,60.14
2016-02-22T02:54:46.182Z,59.85
2016-02-22T02:55:46.170Z,60.33
2016-02-22T02:56:46.157Z,60.24
2016-02-22T02:57:46.129Z,60.42
2016-02-22T02:58:46.115Z,60.33
2016-02-22T02:59:46.118Z,60.52
2016-02-22T03:00:46.090Z,60.24
2016-02-22T03:01:46.076Z,59.85
2016-02-22T03:02:46.048Z,60.24
2016-02-22T03:03:46.020Z,60.24
2016-02-22T03:04:46.038Z,60.11
2016-02-22T03:05:45.994Z,60.33
2016-02-22T03:06:45.981Z,60.33
2016-02-22T03:07:45.984Z,60.33
2016-02-22T03:08:45.956Z,60.33
2016-02-22T03:09:45.942Z,60.04
2016-02-22T03:10:45.929Z,60.24
2016-02-22T03:11:45.901Z,59.75
2016-02-22T03:12:45.887Z,59.94
2016-02-22T03:13:45.875Z,59.94
2016-02-22T03:14:45.861Z,59.75
2016-02-22T03:15:45.834Z,59.94
2016-02-22T03:16:45.836Z,59.94
2016-02-22T03:17:45.807Z,60.04
2016-02-22T03:18:45.794Z,60.24
2016-02-22T03:19:45.767Z,60.42
2016-02-22T03:20:45.753Z,60.33
2016-02-22T03:21:45.755Z,60.33
2016-02-22T03:22:45.728Z,60.42
2016-02-22T03:23:45.699Z,60.72
2016-02-22T03:24:45.701Z,60.33
2016-02-22T03:25:45.672Z,60.52
2016-02-22T03:26:45.660Z,60.33
2016-02-22T03:27:45.647Z,60.52
2016-02-22T03:28:45.634Z,60.33
2016-02-22T03:29:45.621Z,60.42
2016-02-22T03:30:45.593Z,60.33
2016-02-22T03:31:45.596Z,60.52
2016-02-22T03:32:45.566Z,60.33
2016-02-22T03:33:45.554Z,60.42
2016-02-22T03:34:45.541Z,60.52
2016-02-22T03:35:45.528Z,60.42
2016-02-22T03:36:45.515Z,60.81
2016-02-22T03:37:45.486Z,60.49
2016-02-22T03:38:45.473Z,60.81
2016-02-22T03:39:45.460Z,60.39
2016-02-22T03:40:45.448Z,60.3
2016-02-22T03:41:45.419Z,60.91
2016-02-22T03:42:45.406Z,60.78
2016-02-22T03:43:45.393Z,60.52
2016-02-22T03:44:45.364Z,60.39
2016-02-22T03:45:45.351Z,60.3
2016-02-22T03:46:45.339Z,60.33
2016-02-22T03:47:45.342Z,60.81
2016-02-22T03:48:45.313Z,60.52
2016-02-22T03:49:45.284Z,60.24
2016-02-22T03:50:45.271Z,60.3
2016-02-22T03:51:45.258Z,60.91
2016-02-22T03:52:45.230Z,60.39
2016-02-22T03:53:45.233Z,60.39
2016-02-22T03:54:45.219Z,60.33
2016-02-22T03:55:45.191Z,60.3
2016-02-22T03:56:45.178Z,60.39
2016-02-22T03:57:45.166Z,60.33
2016-02-22T03:58:45.152Z,60.72
2016-02-22T03:59:45.139Z,60.52
2016-02-22T04:00:45.111Z,60.21
2016-02-22T04:01:45.098Z,60.01
2016-02-22T04:02:45.069Z,60.04
2016-02-22T04:03:45.057Z,59.72
2016-02-22T04:04:45.043Z,59.85
2016-02-22T04:05:45.030Z,60.11
2016-02-22T04:06:45.033Z,59.75
2016-02-22T04:07:45.004Z,60.01
2016-02-22T04:08:44.992Z,60.24
2016-02-22T04:09:44.963Z,60.3
2016-02-22T04:10:44.965Z,60.42
2016-02-22T04:11:44.937Z,60.01
2016-02-22T04:12:44.924Z,60.21
2016-02-22T04:13:44.896Z,59.85
2016-02-22T04:14:44.883Z,59.75
2016-02-22T04:15:44.886Z,60.11
2016-02-22T04:16:44.857Z,59.85
2016-02-22T04:17:44.828Z,60.24
2016-02-22T04:18:44.831Z,59.94
2016-02-22T04:19:44.802Z,59.92
2016-02-22T04:20:44.789Z,59.75
2016-02-22T04:21:44.777Z,60.04
2016-02-22T04:22:44.763Z,60.21
2016-02-22T04:23:44.750Z,59.94
2016-02-22T04:24:44.722Z,60.11
2016-02-22T04:25:44.740Z,59.66
2016-02-22T04:26:44.680Z,60.11
2016-02-22T04:27:44.683Z,59.75
2016-02-22T04:28:44.654Z,60.24
2016-02-22T04:29:44.641Z,60.01
2016-02-22T04:30:44.629Z,59.75
2016-02-22T04:31:44.600Z,60.14
2016-02-22T04:32:44.602Z,60.21
2016-02-22T04:33:44.574Z,59.82
2016-02-22T04:34:44.562Z,60.24
2016-02-22T04:35:44.548Z,60.3
2016-02-22T04:36:44.535Z,60.33
2016-02-22T04:37:44.523Z,60.24
2016-02-22T04:38:44.494Z,60.24
2016-02-22T04:39:44.496Z,60.21
2016-02-22T04:40:44.468Z,60.21
2016-02-22T04:41:44.439Z,60.11
2016-02-22T04:42:44.443Z,60.01
2016-02-22T04:43:44.414Z,59.72
2016-02-22T04:44:44.400Z,59.85
2016-02-22T04:45:44.373Z,60.33
2016-02-22T04:46:44.375Z,60.33
2016-02-22T04:47:44.347Z,60.33
2016-02-22T04:48:44.349Z,60.24
2016-02-22T04:49:44.321Z,60.24
2016-02-22T04:50:44.308Z,60.24
2016-02-22T04:51:44.278Z,60.3
2016-02-22T04:52:44.266Z,60.24
2016-02-22T04:53:44.252Z,59.82
2016-02-22T04:54:44.241Z,60.21
2016-02-22T04:55:44.227Z,60.04
2016-02-22T04:56:44.199Z,59.94
2016-02-22T04:57:44.186Z,59.85
2016-02-22T04:58:44.157Z,60.42
2016-02-22T04:59:44.160Z,60.24
2016-02-22T05:00:44.131Z,60.24
2016-02-22T05:01:44.119Z,60.52
2016-02-22T05:02:44.105Z,60.49
2016-02-22T05:03:44.077Z,60.52
2016-02-22T05:04:44.066Z,60.49
2016-02-22T05:05:44.053Z,59.92
2016-02-22T05:06:44.024Z,60.21
2016-02-22T05:07:44.043Z,60.11
2016-02-22T05:08:43.998Z,60.39
2016-02-22T05:09:43.986Z,60.42
2016-02-22T05:10:43.973Z,60.33
2016-02-22T05:11:43.944Z,60.04
2016-02-22T05:12:43.931Z,60.33
2016-02-22T05:13:43.934Z,60.42
2016-02-22T05:14:43.906Z,60.21
2016-02-22T05:15:43.892Z,60.81
2016-02-22T05:16:43.864Z,60.24
2016-02-22T05:17:43.851Z,60.24
2016-02-22T05:18:43.853Z,60.04
2016-02-22T05:19:43.824Z,60.04
2016-02-22T05:20:43.811Z,60.39
2016-02-22T05:21:43.800Z,60.21
2016-02-22T05:22:43.771Z,60.39
2016-02-22T05:23:43.773Z,60.42
2016-02-22T05:24:43.745Z,60.24
2016-02-22T05:25:43.732Z,60.24
2016-02-22T05:26:43.702Z,60.72
2016-02-22T05:27:43.690Z,60.3
2016-02-22T05:28:43.678Z,60.24
2016-02-22T05:29:43.665Z,60.21
2016-02-22T05:30:43.667Z,60.33
2016-02-22T05:31:43.623Z,60.33
2016-02-22T05:32:43.610Z,60.42
2016-02-22T05:33:43.612Z,59.94
2016-02-22T05:34:43.584Z,60.11
2016-02-22T05:35:43.571Z,60.52
2016-02-22T05:36:43.543Z,60.01
2016-02-22T05:37:43.514Z,60.33
2016-02-22T05:38:43.517Z,60.24
2016-02-22T05:39:43.503Z,60.33
2016-02-22T05:40:43.475Z,60.11
2016-02-22T05:41:43.462Z,60.72
2016-02-22T05:42:43.465Z,60.01
2016-02-22T05:43:43.436Z,60.01
2016-02-22T05:44:43.423Z,60.33
2016-02-22T05:45:43.411Z,60.14
2016-02-22T05:46:43.381Z,59.72
2016-02-22T05:47:43.369Z,59.85
2016-02-22T05:48:43.356Z,60.33
2016-02-22T05:49:43.328Z,60.24
2016-02-22T05:50:43.314Z,60.04
2016-02-22T05:51:43.317Z,59.75
2016-02-22T05:52:43.289Z,59.94
2016-02-22T05:53:43.275Z,60.14
2016-02-22T05:54:43.263Z,59.75
2016-02-22T05:55:43.250Z,59.94
2016-02-22T05:56:43.222Z,60.24
2016-02-22T05:57:43.208Z,60.33
2016-02-22T05:58:43.179Z,59.75
2016-02-22T05:59:43.183Z,59.94
2016-02-22T06:00:43.169Z,60.24
2016-02-22T06:01:43.141Z,60.3
2016-02-22T06:02:43.128Z,59.75
2016-02-22T06:03:43.116Z,60.01
2016-02-22T06:04:43.087Z,59.72
2016-02-22T06:05:43.089Z,59.92
2016-02-22T06:06:43.061Z,60.3
2016-02-22T06:07:43.048Z,59.82
2016-02-22T06:08:43.034Z,59.66
2016-02-22T06:09:43.002Z,60.14
2016-02-22T06:10:42.977Z,59.85
2016-02-22T06:11:42.951Z,60.01
2016-02-22T06:12:42.925Z,59.92
2016-02-22T06:13:42.900Z,60.04
2016-02-22T06:14:42.861Z,60.04
2016-02-22T06:15:42.844Z,60.01
2016-02-22T06:16:42.826Z,60.04
2016-02-22T06:17:42.809Z,59.94
2016-02-22T06:18:42.775Z,60.11
2016-02-22T06:19:42.774Z,59.82
2016-02-22T06:20:42.745Z,59.66
2016-02-22T06:21:42.746Z,59.75
2016-02-22T06:22:42.699Z,59.72
2016-02-22T06:23:42.685Z,59.72
2016-02-22T06:24:42.672Z,59.75
2016-02-22T06:25:42.657Z,59.72
2016-02-22T06:26:42.643Z,59.63
2016-02-22T06:27:42.630Z,59.82
2016-02-22T06:28:42.616Z,59.72
2016-02-22T06:29:42.587Z,59.92
2016-02-22T06:30:42.573Z,59.82
2016-02-22T06:31:42.545Z,59.85
2016-02-22T06:32:42.531Z,59.82
2016-02-22T06:33:42.533Z,59.53
2016-02-22T06:34:42.505Z,59.66
2016-02-22T06:35:42.492Z,60.33
2016-02-22T06:36:42.479Z,59.75
2016-02-22T06:37:42.466Z,59.53
2016-02-22T06:38:42.453Z,59.24
2016-02-22T06:39:42.440Z,59.63
2016-02-22T06:40:42.412Z,59.27
2016-02-22T06:41:42.399Z,59.66
2016-02-22T06:42:42.386Z,59.66
2016-02-22T06:43:42.356Z,59.24
2016-02-22T06:44:42.345Z,59.63
2016-02-22T06:45:42.315Z,59.53
2016-02-22T06:46:42.318Z,59.44
2016-02-22T06:47:42.306Z,59.82
2016-02-22T06:48:42.278Z,59.63
2016-02-22T06:49:42.264Z,59.72
2016-02-22T06:50:42.235Z,59.82
2016-02-22T06:51:42.222Z,59.82
2016-02-22T06:52:42.226Z,59.72
2016-02-22T06:53:42.197Z,59.56
2016-02-22T06:54:42.183Z,59.85
2016-02-22T06:55:42.155Z,59.53
2016-02-22T06:56:42.174Z,59.63
2016-02-22T06:57:42.144Z,59.63
2016-02-22T06:58:42.132Z,59.75
2016-02-22T06:59:42.103Z,59.53
2016-02-22T07:00:42.091Z,59.63
2016-02-22T07:01:42.077Z,59.72
2016-02-22T07:02:42.049Z,59.63
2016-02-22T07:03:42.036Z,59.66
2016-02-22T07:04:42.023Z,59.24
2016-02-22T07:05:41.994Z,59.53
2016-02-22T07:06:41.982Z,59.27
2016-02-22T07:07:41.969Z,59.27
2016-02-22T07:08:41.956Z,59.05
2016-02-22T07:09:41.927Z,59.53
2016-02-22T07:10:41.929Z,59.05
2016-02-22T07:11:41.901Z,59.56
2016-02-22T07:12:41.904Z,59.34
2016-02-22T07:13:41.875Z,59.05
2016-02-22T07:14:41.862Z,59.27
2016-02-22T07:15:41.834Z,59.24
2016-02-22T07:16:41.821Z,59.15
2016-02-22T07:17:41.808Z,59.24
2016-02-22T07:18:41.779Z,59.15
2016-02-22T07:19:41.767Z,58.86
2016-02-22T07:20:41.769Z,59.15
2016-02-22T07:21:41.741Z,59.24
2016-02-22T07:22:41.743Z,59.27
2016-02-22T07:23:41.700Z,58.98
2016-02-22T07:24:41.702Z,59.05
2016-02-22T07:25:41.672Z,59.24
2016-02-22T07:26:41.661Z,59.08
2016-02-22T07:27:41.632Z,59.24
2016-02-22T07:28:41.619Z,59.24
2016-02-22T07:29:41.605Z,59.08
2016-02-22T07:30:41.437Z,59.05
2016-02-22T07:31:41.580Z,59.17
2016-02-22T07:32:41.566Z,59.17
2016-02-22T07:33:41.570Z,59.37
2016-02-22T07:34:41.526Z,58.95
2016-02-22T07:35:41.513Z,59.05
2016-02-22T07:36:41.484Z,58.98
2016-02-22T07:37:41.471Z,59.15
2016-02-22T07:38:41.458Z,59.27
2016-02-22T07:39:41.445Z,59.17
2016-02-22T07:40:41.432Z,58.98
2016-02-22T07:41:41.420Z,58.98
2016-02-22T07:42:41.391Z,59.05
2016-02-22T07:43:41.378Z,59.08
2016-02-22T07:44:41.365Z,59.05
2016-02-22T07:45:41.352Z,59.15
2016-02-22T07:46:41.339Z,59.24
2016-02-22T07:47:41.311Z,59.15
2016-02-22T07:48:41.298Z,59.17
2016-02-22T07:49:41.269Z,59.15
2016-02-22T07:50:41.272Z,59.05
2016-02-22T07:51:41.243Z,58.98
2016-02-22T07:52:41.231Z,59.05
2016-02-22T07:53:41.217Z,59.17
2016-02-22T07:54:41.205Z,59.15
2016-02-22T07:55:41.192Z,59.15
2016-02-22T07:56:41.163Z,59.15
2016-02-22T07:57:41.150Z,59.05
2016-02-22T07:58:41.137Z,59.08
2016-02-22T07:59:41.108Z,58.76
2016-02-22T08:00:41.096Z,59.37
2016-02-22T08:01:41.114Z,59.17
2016-02-22T08:02:41.070Z,59.08
2016-02-22T08:03:41.041Z,59.08
2016-02-22T08:04:41.027Z,58.98
2016-02-22T08:05:41.031Z,59.08
2016-02-22T08:06:41.002Z,59.47
2016-02-22T08:07:41.114Z,58.7
2016-02-22T08:08:40.961Z,58.79
2016-02-22T08:09:40.949Z,59.17
2016-02-22T08:10:40.935Z,58.79
2016-02-22T08:11:40.937Z,58.7
2016-02-22T08:12:40.910Z,59.27
2016-02-22T08:13:40.881Z,58.98
2016-02-22T08:14:40.867Z,59.08
2016-02-22T08:15:42.667Z,59.08
2016-02-22T08:16:41.514Z,58.79
2016-02-22T08:17:42.423Z,58.98
2016-02-22T08:18:40.800Z,59.17
2016-02-22T08:19:41.943Z,59.17
2016-02-22T08:20:43.603Z,59.08
2016-02-22T08:21:43.434Z,59.17
2016-02-22T08:22:43.139Z,58.98
2016-02-22T08:23:43.408Z,59.08
2016-02-22T08:24:43.426Z,58.6
2016-02-22T08:25:43.397Z,58.79
2016-02-22T08:26:43.353Z,59.08
2016-02-22T08:27:43.105Z,59.56
2016-02-22T08:28:43.124Z,59.47
2016-02-22T08:29:43.017Z,61.19
2016-02-22T08:30:43.255Z,63.99
2016-02-22T08:31:42.741Z,65.72
2016-02-22T08:32:42.932Z,64.76
2016-02-22T08:33:43.200Z,63.02
2016-02-22T08:34:42.687Z,61.87
2016-02-22T08:35:43.018Z,61.97
2016-02-22T08:36:40.505Z,62.83
2016-02-22T08:37:40.491Z,63.48
2016-02-22T08:38:40.480Z,62.51
2016-02-22T08:39:40.466Z,60.3
2016-02-22T08:40:40.454Z,59.53
2016-02-22T08:41:40.425Z,59.02
2016-02-22T08:42:40.427Z,58.15
2016-02-22T08:43:40.399Z,57.75
2016-02-22T08:44:40.386Z,57.93
2016-02-22T08:45:40.357Z,57.17
2016-02-22T08:46:40.376Z,58.8
2016-02-22T08:47:40.332Z,60.34
2016-02-22T08:48:40.318Z,59.95
2016-02-22T08:49:40.306Z,59.5
2016-02-22T08:50:40.292Z,59.5
2016-02-22T08:51:40.280Z,59.79
2016-02-22T08:52:40.251Z,59.41
2016-02-22T08:53:40.253Z,59.02
2016-02-22T08:54:40.225Z,59.05
2016-02-22T08:55:40.196Z,59.31
2016-02-22T08:56:40.184Z,58.64
2016-02-22T08:57:40.170Z,58.73
2016-02-22T08:58:40.158Z,58.67
2016-02-22T08:59:40.129Z,58.35
2016-02-22T09:00:40.117Z,58.37
2016-02-22T09:01:40.103Z,58.83
2016-02-22T09:02:40.105Z,58.35
2016-02-22T09:03:40.061Z,58.06
2016-02-22T09:04:40.064Z,58.64
2016-02-22T09:05:40.036Z,58.25
2016-02-22T09:06:40.023Z,57.9
2016-02-22T09:07:40.010Z,58.09
2016-02-22T09:08:39.997Z,58.28
2016-02-22T09:09:39.969Z,58.28
2016-02-22T09:10:39.955Z,58.09
2016-02-22T09:11:39.927Z,58.06
2016-02-22T09:12:39.930Z,58.18
2016-02-22T09:13:39.901Z,58.28
2016-02-22T09:14:39.888Z,58.18
2016-02-22T09:15:39.875Z,58.09
2016-02-22T09:16:39.862Z,58.09
2016-02-22T09:17:39.849Z,58.28
2016-02-22T09:18:39.821Z,58.28
2016-02-22T09:19:39.824Z,58.09
2016-02-22T09:20:39.779Z,58.28
2016-02-22T09:21:39.767Z,57.7
2016-02-22T09:22:39.753Z,58.25
2016-02-22T09:23:39.740Z,58.09
2016-02-22T09:24:39.728Z,57.9
2016-02-22T09:25:39.714Z,57.6
2016-02-22T09:26:39.702Z,57.32
2016-02-22T09:27:39.689Z,57.51
2016-02-22T09:28:39.504Z,57.42
2016-02-22T09:29:39.631Z,57.32
2016-02-22T09:30:39.619Z,57.42
2016-02-22T09:31:39.622Z,57.6
2016-02-22T09:32:39.593Z,57.51
2016-02-22T09:33:39.564Z,57.6
2016-02-22T09:34:39.567Z,57.32
2016-02-22T09:35:39.554Z,57.22
2016-02-22T09:36:39.525Z,57.22
2016-02-22T09:37:39.528Z,57.22
2016-02-22T09:38:39.500Z,57.32
2016-02-22T09:39:39.471Z,57.03
2016-02-22T09:40:39.458Z,56.93
2016-02-22T09:41:39.446Z,57.03
2016-02-22T09:42:39.432Z,57.32
2016-02-22T09:43:39.404Z,57.13
2016-02-22T09:44:39.390Z,57.03
2016-02-22T09:45:39.379Z,57.22
2016-02-22T09:46:39.365Z,57.32
2016-02-22T09:47:39.351Z,57.32
2016-02-22T09:48:39.323Z,57.32
2016-02-22T09:49:39.310Z,57.22
2016-02-22T09:50:39.298Z,57.51
2016-02-22T09:51:39.284Z,57.51
2016-02-22T09:52:39.257Z,57.32
2016-02-22T09:53:39.242Z,57.51
2016-02-22T09:54:39.215Z,57.13
2016-02-22T09:55:39.217Z,57.13
2016-02-22T09:56:39.203Z,56.65
2016-02-22T09:57:39.192Z,56.65
2016-02-22T09:58:39.164Z,56.65
2016-02-22T09:59:39.150Z,57.03
2016-02-22T10:00:39.137Z,56.84
2016-02-22T10:01:39.124Z,56.74
2016-02-22T10:02:39.095Z,56.74
2016-02-22T10:03:39.083Z,56.74
2016-02-22T10:04:39.069Z,56.93
2016-02-22T10:05:39.041Z,57.03
2016-02-22T10:06:39.028Z,56.93
2016-02-22T10:07:39.030Z,56.74
2016-02-22T10:08:39.002Z,57.13
2016-02-22T10:09:38.988Z,56.45
2016-02-22T10:10:38.976Z,56.45
2016-02-22T10:11:38.948Z,56.45
2016-02-22T10:12:38.935Z,56.36
2016-02-22T10:13:38.906Z,56.45
2016-02-22T10:14:38.894Z,56.36
2016-02-22T10:15:38.880Z,56.36
2016-02-22T10:16:38.867Z,55.88
2016-02-22T10:17:38.855Z,56.55
2016-02-22T10:18:38.826Z,56.16
2016-02-22T10:19:38.813Z,56.16
2016-02-22T10:20:38.800Z,55.88
2016-02-22T10:21:38.787Z,56.26
2016-02-22T10:22:38.774Z,56.26
2016-02-22T10:23:38.746Z,56.16
2016-02-22T10:24:38.733Z,56.45
2016-02-22T10:25:38.720Z,56.26
2016-02-22T10:26:38.723Z,56.16
2016-02-22T10:27:38.709Z,56.26
2016-02-22T10:28:38.665Z,56.36
2016-02-22T10:29:38.683Z,56.26
2016-02-22T10:30:38.639Z,56.26
2016-02-22T10:31:38.627Z,55.59
2016-02-22T10:32:38.614Z,56.26
2016-02-22T10:33:38.585Z,55.98
2016-02-22T10:34:38.572Z,55.88
2016-02-22T10:35:38.559Z,55.68
2016-02-22T10:36:38.546Z,55.88
2016-02-22T10:37:38.518Z,55.78
2016-02-22T10:38:38.505Z,55.88
2016-02-22T10:39:38.492Z,55.98
2016-02-22T10:40:38.463Z,55.88
2016-02-22T10:41:38.450Z,55.88
2016-02-22T10:42:38.531Z,55.59
2016-02-22T10:43:38.424Z,55.68
2016-02-22T10:44:38.412Z,55.59
2016-02-22T10:45:38.399Z,55.49
2016-02-22T10:46:38.370Z,55.78
2016-02-22T10:47:38.373Z,55.3
2016-02-22T10:48:38.344Z,55.68
2016-02-22T10:49:38.331Z,55.59
2016-02-22T10:50:38.303Z,55.3
2016-02-22T10:51:38.290Z,55.49
2016-02-22T10:52:38.277Z,55.2
2016-02-22T10:53:38.264Z,55.2
2016-02-22T10:54:38.251Z,55.3
2016-02-22T10:55:38.238Z,55.3
2016-02-22T10:56:38.209Z,55.2
2016-02-22T10:57:38.197Z,55.4
2016-02-22T10:58:38.184Z,55.2
2016-02-22T10:59:38.171Z,55.2
2016-02-22T11:00:38.142Z,55.59
2016-02-22T11:01:38.129Z,55.49
2016-02-22T11:02:38.131Z,55.49
2016-02-22T11:03:38.103Z,55.3
2016-02-22T11:04:38.075Z,55.4
2016-02-22T11:05:38.078Z,55.49
2016-02-22T11:06:38.049Z,55.59
2016-02-22T11:07:38.036Z,55.49
2016-02-22T11:08:38.022Z,55.3
2016-02-22T11:09:37.994Z,55.3
2016-02-22T11:10:37.982Z,55.3
2016-02-22T11:11:37.968Z,55.11
2016-02-22T11:12:37.955Z,55.11
2016-02-22T11:13:37.927Z,55.01
2016-02-22T11:14:37.930Z,55.4
2016-02-22T11:15:38.151Z,55.11
2016-02-22T11:16:37.888Z,55.49
2016-02-22T11:17:37.859Z,55.3
2016-02-22T11:18:37.863Z,54.82
2016-02-22T11:19:37.834Z,55.3
2016-02-22T11:20:37.821Z,54.63
2016-02-22T11:21:37.807Z,54.72
2016-02-22T11:22:37.779Z,54.53
2016-02-22T11:23:37.767Z,54.72
2016-02-22T11:24:37.754Z,54.72
2016-02-22T11:25:37.740Z,54.63
2016-02-22T11:26:37.712Z,54.63
2016-02-22T11:27:37.699Z,54.63
2016-02-22T11:28:37.686Z,54.34
2016-02-22T11:29:37.673Z,54.63
2016-02-22T11:30:37.660Z,54.72
2016-02-22T11:31:37.648Z,54.63
2016-02-22T11:32:37.619Z,54.53
2016-02-22T11:33:37.606Z,54.53
2016-02-22T11:34:37.592Z,54.34
2016-02-22T11:35:37.580Z,54.82
2016-02-22T11:36:37.567Z,54.63
2016-02-22T11:37:37.538Z,54.82
2016-02-22T11:38:37.525Z,54.53
2016-02-22T11:39:37.513Z,54.91
2016-02-22T11:40:37.484Z,54.82
2016-02-22T11:41:37.486Z,54.91
2016-02-22T11:42:37.458Z,54.34
2016-02-22T11:43:37.445Z,54.63
2016-02-22T11:44:37.433Z,54.72
2016-02-22T11:45:37.419Z,54.53
2016-02-22T11:46:37.391Z,54.14
2016-02-22T11:47:37.377Z,54.53
2016-02-22T11:48:37.365Z,54.24
2016-02-22T11:49:37.352Z,54.34
2016-02-22T11:50:37.324Z,54.24
2016-02-22T11:51:37.326Z,54.34
2016-02-22T11:52:37.297Z,54.43
2016-02-22T11:53:37.285Z,54.24
2016-02-22T11:54:37.256Z,54.14
2016-02-22T11:55:37.243Z,54.63
2016-02-22T11:56:37.230Z,54.53
2016-02-22T11:57:37.234Z,54.43
2016-02-22T11:58:37.189Z,53.96
2016-02-22T11:59:37.176Z,54.82
2016-02-22T12:00:37.162Z,54.24
2016-02-22T12:01:37.150Z,54.14
2016-02-22T12:02:37.137Z,53.96
2016-02-22T12:03:37.124Z,53.96
2016-02-22T12:04:37.095Z,54.14
2016-02-22T12:05:37.082Z,53.86
2016-02-22T12:06:37.070Z,53.96
2016-02-22T12:07:37.056Z,54.14
2016-02-22T12:08:37.044Z,54.24
2016-02-22T12:09:37.015Z,53.86
2016-02-22T12:10:37.003Z,53.66
2016-02-22T12:11:36.989Z,53.96
2016-02-22T12:12:36.977Z,53.76
2016-02-22T12:13:36.947Z,53.47
2016-02-22T12:14:36.934Z,53.96
2016-02-22T12:15:36.922Z,53.96
2016-02-22T12:16:36.910Z,53.86
2016-02-22T12:17:36.896Z,54.14
2016-02-22T12:18:36.882Z,53.86
2016-02-22T12:19:36.855Z,53.57
2016-02-22T12:20:36.857Z,53.86
2016-02-22T12:21:36.829Z,54.05
2016-02-22T12:22:36.815Z,53.57
2016-02-22T12:23:36.788Z,53.76
2016-02-22T12:24:36.774Z,53.66
2016-02-22T12:25:36.762Z,54.05
2016-02-22T12:26:36.748Z,53.86
2016-02-22T12:27:36.719Z,53.96
2016-02-22T12:28:36.707Z,53.28
2016-02-22T12:29:36.695Z,53.38
2016-02-22T12:30:36.665Z,54.14
2016-02-22T12:31:36.667Z,53.28
2016-02-22T12:32:36.656Z,53.28
2016-02-22T12:33:36.626Z,53.86
2016-02-22T12:34:36.614Z,53.38
2016-02-22T12:35:36.600Z,53.66
2016-02-22T12:36:36.573Z,53.28
2016-02-22T12:37:36.558Z,53.66
2016-02-22T12:38:36.547Z,53.38
2016-02-22T12:39:36.533Z,53.47
2016-02-22T12:40:36.519Z,53.28
2016-02-22T12:41:36.492Z,53.09
2016-02-22T12:42:36.480Z,53.47
2016-02-22T12:43:36.450Z,53.28
2016-02-22T12:44:36.437Z,53.57
2016-02-22T12:45:36.425Z,53.28
2016-02-22T12:46:36.411Z,53.47
2016-02-22T12:47:36.399Z,53.57
2016-02-22T12:48:36.385Z,53.66
2016-02-22T12:49:36.373Z,53.47
2016-02-22T12:50:36.344Z,53.57
2016-02-22T12:51:36.332Z,53.19
2016-02-22T12:52:36.318Z,53.57
2016-02-22T12:53:36.326Z,53.19
2016-02-22T12:54:36.282Z,53.57